createdAt,value
2018-11-23T00:00:18.626Z,345.20
2018-11-23T00:03:07.740Z,231.93
2018-11-23T00:05:56.988Z,283.17
2018-11-23T00:11:43.087Z,256.63
2018-11-23T00:14:26.242Z,366.00
2018-11-23T00:17:15.384Z,416.73
2018-11-23T00:22:48.407Z,166.27
2018-11-23T00:28:26.052Z,81.97
2018-11-23T00:31:15.527Z,87.57
2018-11-23T00:33:59.006Z,94.33
2018-11-23T00:36:48.132Z,69.10
2018-11-23T00:39:37.024Z,176.17
2018-11-23T00:42:26.152Z,162.07
2018-11-23T00:45:14.020Z,464.97
2018-11-23T00:48:03.117Z,226.07
2018-11-23T00:50:45.448Z,249.23
2018-11-23T00:59:03.912Z,144.90
2018-11-23T01:02:11.876Z,383.10
2018-11-23T01:04:55.192Z,131.90
2018-11-23T01:07:44.884Z,241.57
2018-11-23T01:10:33.996Z,344.87
2018-11-23T01:13:23.119Z,132.13
2018-11-23T01:16:12.390Z,446.40
2018-11-23T01:19:01.551Z,523.13
2018-11-23T01:21:50.772Z,716.63
2018-11-23T01:24:39.998Z,384.53
2018-11-23T01:27:29.274Z,725.80
2018-11-23T01:30:23.345Z,464.80
2018-11-23T01:33:12.559Z,729.33
2018-11-23T01:36:01.864Z,255.33
2018-11-23T01:38:51.010Z,309.10
2018-11-23T01:41:40.778Z,336.37
2018-11-23T01:44:30.069Z,295.70
2018-11-23T01:47:21.033Z,254.07
2018-11-23T01:50:30.623Z,145.43
2018-11-23T01:56:10.015Z,160.23
2018-11-23T02:05:13.911Z,198.80
2018-11-23T02:10:52.643Z,431.25
2018-11-23T02:16:31.211Z,377.20
2018-11-23T02:19:20.820Z,129.43
2018-11-23T02:25:01.265Z,226.40
2018-11-23T02:27:50.772Z,123.33
2018-11-23T02:30:39.845Z,309.87
2018-11-23T02:33:22.567Z,550.23
2018-11-23T02:36:11.833Z,77.23
2018-11-23T02:39:01.004Z,505.93
2018-11-23T02:41:50.300Z,446.30
2018-11-23T02:44:20.474Z,206.80
2018-11-23T02:47:10.444Z,85.60
2018-11-23T02:49:59.699Z,108.10
2018-11-23T02:52:42.485Z,57.97
2018-11-23T02:55:31.806Z,255.03
2018-11-23T02:58:21.055Z,72.47
2018-11-23T03:04:16.102Z,317.40
2018-11-23T03:06:45.762Z,214.97
2018-11-23T03:09:34.931Z,289.90
2018-11-23T03:12:24.110Z,106.70
2018-11-23T03:15:06.570Z,595.13
2018-11-23T03:17:55.754Z,227.50
2018-11-23T03:20:37.962Z,200.43
2018-11-23T03:26:19.420Z,156.83
2018-11-23T03:29:08.938Z,136.13
2018-11-23T03:31:58.070Z,110.47
2018-11-23T03:34:40.600Z,60.70
2018-11-23T03:37:29.726Z,201.27
2018-11-23T03:40:18.922Z,230.33
2018-11-23T03:43:08.110Z,216.13
2018-11-23T03:45:57.272Z,303.00
2018-11-23T03:48:46.418Z,119.53
2018-11-23T03:51:35.575Z,65.30
2018-11-23T03:54:24.799Z,145.57
2018-11-23T03:57:14.411Z,45.33
2018-11-23T04:00:03.805Z,180.53
2018-11-23T04:02:53.873Z,200.83
2018-11-23T04:05:43.053Z,294.23
2018-11-23T04:08:32.252Z,119.03
2018-11-23T04:11:21.638Z,192.10
2018-11-23T04:14:10.829Z,102.43
2018-11-23T04:16:59.919Z,155.60
2018-11-23T04:19:42.639Z,102.77
2018-11-23T04:22:31.745Z,178.60
2018-11-23T04:25:14.409Z,61.37
2018-11-23T04:31:09.485Z,70.97
2018-11-23T04:37:01.472Z,82.40
2018-11-23T04:39:51.219Z,73.63
2018-11-23T04:45:45.759Z,177.50
2018-11-23T04:48:29.457Z,183.33
2018-11-23T04:51:12.986Z,621.03
2018-11-23T04:57:02.231Z,369.53
2018-11-23T04:59:51.418Z,277.87
2018-11-23T05:02:41.578Z,204.70
2018-11-23T05:05:30.689Z,263.87
2018-11-23T05:08:20.928Z,283.90
2018-11-23T05:16:32.366Z,127.37
2018-11-23T05:19:21.517Z,63.27
2018-11-23T05:22:10.665Z,43.53
2018-11-23T05:24:59.764Z,55.37
2018-11-23T05:27:43.971Z,41.73
2018-11-23T05:33:21.035Z,49.70
2018-11-23T05:36:10.441Z,39.77
2018-11-23T05:38:51.976Z,64.73
2018-11-23T05:41:41.065Z,74.97
2018-11-23T05:44:23.205Z,41.77
2018-11-23T05:47:12.346Z,36.47
2018-11-23T05:49:54.711Z,29.77
2018-11-23T05:52:44.568Z,70.03
2018-11-23T05:55:27.003Z,65.63
2018-11-23T05:58:16.133Z,101.73
2018-11-23T06:00:58.194Z,68.00
2018-11-23T06:03:47.363Z,146.13
2018-11-23T06:06:30.317Z,85.60
2018-11-23T06:09:19.838Z,59.10
2018-11-23T06:12:02.459Z,73.43
2018-11-23T06:14:51.507Z,98.63
2018-11-23T06:17:33.721Z,52.37
2018-11-23T06:20:24.159Z,134.30
2018-11-23T06:23:06.557Z,39.60
2018-11-23T06:26:17.274Z,71.23
2018-11-23T06:28:59.481Z,143.77
2018-11-23T06:31:48.561Z,45.87
2018-11-23T06:34:31.063Z,67.27
2018-11-23T06:37:20.101Z,57.20
2018-11-23T06:40:01.852Z,65.30
2018-11-23T06:42:50.925Z,50.03
2018-11-23T06:45:40.881Z,71.50
2018-11-23T06:48:30.043Z,61.37
2018-11-23T06:51:12.473Z,66.13
2018-11-23T06:54:01.535Z,45.57
2018-11-23T06:56:47.710Z,56.73
2018-11-23T06:59:36.742Z,71.63
2018-11-23T07:02:21.389Z,48.97
2018-11-23T07:05:10.867Z,58.00
2018-11-23T07:07:52.834Z,65.17
2018-11-23T07:10:42.813Z,84.90
2018-11-23T07:13:27.139Z,80.50
2018-11-23T07:16:16.255Z,97.27
2018-11-23T07:18:58.078Z,105.23
2018-11-23T07:24:53.151Z,66.50
2018-11-23T07:27:35.228Z,104.60
2018-11-23T07:30:19.609Z,34.37
2018-11-23T07:33:08.802Z,99.17
2018-11-23T07:35:59.255Z,86.53
2018-11-23T07:38:48.344Z,81.90
2018-11-23T07:42:16.104Z,83.30
2018-11-23T07:45:05.760Z,98.77
2018-11-23T07:47:54.901Z,88.87
2018-11-23T07:50:44.112Z,115.60
2018-11-23T07:53:33.304Z,97.93
2018-11-23T07:56:22.423Z,51.17
2018-11-23T07:59:11.789Z,52.80
2018-11-23T08:02:00.937Z,39.03
2018-11-23T08:04:50.099Z,37.30
2018-11-23T08:07:39.229Z,48.17
2018-11-23T08:10:27.386Z,62.73
2018-11-23T08:13:09.645Z,66.23
2018-11-23T08:15:58.855Z,82.57
2018-11-23T08:18:47.983Z,84.50
2018-11-23T08:21:37.043Z,99.73
2018-11-23T08:24:19.155Z,65.77
2018-11-23T08:27:08.161Z,250.50
2018-11-23T08:33:04.977Z,240.13
2018-11-23T08:35:47.513Z,420.20
2018-11-23T08:38:36.641Z,444.57
2018-11-23T08:41:25.827Z,287.60
2018-11-23T08:44:15.016Z,770.13
2018-11-23T08:47:04.209Z,249.13
2018-11-23T08:49:53.349Z,373.40
2018-11-23T08:52:42.613Z,557.33
2018-11-23T08:55:31.993Z,576.17
2018-11-23T08:58:21.099Z,546.13
2018-11-23T09:01:10.397Z,340.17
2018-11-23T09:03:59.911Z,301.83
2018-11-23T09:06:49.182Z,380.97
2018-11-23T09:09:38.311Z,262.80
2018-11-23T09:12:27.443Z,451.17
2018-11-23T09:15:17.636Z,342.57
2018-11-23T09:17:59.571Z,467.90
2018-11-23T09:23:51.677Z,270.07
2018-11-23T09:26:33.541Z,764.17
2018-11-23T09:29:22.656Z,585.10
2018-11-23T09:32:11.907Z,635.53
2018-11-23T09:35:14.814Z,576.97
2018-11-23T09:37:56.685Z,608.40
2018-11-23T09:40:46.275Z,433.87
2018-11-23T09:43:35.409Z,284.43
2018-11-23T09:46:24.821Z,365.50
2018-11-23T09:49:13.897Z,438.87
2018-11-23T09:52:02.964Z,565.47
2018-11-23T09:54:44.798Z,405.37
2018-11-23T09:57:33.850Z,347.50
2018-11-23T10:00:17.131Z,473.97
2018-11-23T10:03:06.776Z,220.20
2018-11-23T10:05:48.622Z,483.03
2018-11-23T10:08:37.704Z,231.20
2018-11-23T10:11:19.362Z,138.07
2018-11-23T10:14:08.409Z,363.50
2018-11-23T10:16:51.040Z,862.67
2018-11-23T10:19:40.136Z,1064.90
2018-11-23T10:22:21.668Z,882.97
2018-11-23T10:25:11.992Z,647.33
2018-11-23T10:28:01.110Z,984.03
2018-11-23T10:30:50.432Z,559.07
2018-11-23T10:33:39.590Z,501.33
2018-11-23T10:36:28.692Z,739.50
2018-11-23T10:39:17.875Z,801.67
2018-11-23T10:42:06.990Z,698.03
2018-11-23T10:44:56.102Z,733.10
2018-11-23T10:47:45.657Z,863.03
2018-11-23T10:50:36.373Z,559.27
2018-11-23T10:53:25.498Z,714.67
2018-11-23T10:56:14.679Z,774.40
2018-11-23T10:59:04.015Z,206.33
2018-11-23T11:02:12.034Z,365.33
2018-11-23T11:05:13.372Z,899.57
2018-11-23T11:08:03.312Z,949.83
2018-11-23T11:10:52.684Z,1231.47
2018-11-23T11:13:41.961Z,844.63
2018-11-23T11:16:31.075Z,681.40
2018-11-23T11:19:20.166Z,790.87
2018-11-23T11:22:09.307Z,851.27
2018-11-23T11:24:58.408Z,313.43
2018-11-23T11:27:47.526Z,612.27
2018-11-23T11:30:36.647Z,623.07
2018-11-23T11:33:25.836Z,608.97
2018-11-23T11:36:14.942Z,734.63
2018-11-23T11:42:09.141Z,600.37
2018-11-23T11:44:51.213Z,422.10
2018-11-23T11:50:14.412Z,301.50
2018-11-23T11:53:03.479Z,637.37
2018-11-23T11:55:45.747Z,718.47
2018-11-23T11:58:34.823Z,788.40
2018-11-23T12:01:16.833Z,639.87
2018-11-23T12:04:06.007Z,541.03
2018-11-23T12:06:47.706Z,753.90
2018-11-23T12:09:36.788Z,560.17
2018-11-23T12:12:19.140Z,646.93
2018-11-23T12:15:09.329Z,855.60
2018-11-23T12:17:50.896Z,606.73
2018-11-23T12:20:39.977Z,149.17
2018-11-23T12:23:29.023Z,678.20
2018-11-23T12:26:11.760Z,183.40
2018-11-23T12:29:00.967Z,249.70
2018-11-23T12:31:50.068Z,405.37
2018-11-23T12:34:39.090Z,595.87
2018-11-23T12:37:28.171Z,525.13
2018-11-23T12:40:11.930Z,231.87
2018-11-23T12:43:01.057Z,144.67
2018-11-23T12:45:43.251Z,221.57
2018-11-23T12:48:32.317Z,428.47
2018-11-23T12:51:14.263Z,175.80
2018-11-23T12:54:03.822Z,227.77
2018-11-23T12:56:45.565Z,430.40
2018-11-23T12:59:34.615Z,304.27
2018-11-23T13:02:17.213Z,131.33
2018-11-23T13:05:06.565Z,322.47
2018-11-23T13:07:48.718Z,142.27
2018-11-23T13:10:37.833Z,133.17
2018-11-23T13:13:19.629Z,103.27
2018-11-23T13:16:08.652Z,327.33
2018-11-23T13:18:51.001Z,207.67
2018-11-23T13:21:40.116Z,194.43
2018-11-23T13:24:22.195Z,167.00
2018-11-23T13:27:30.195Z,125.13
2018-11-23T13:30:20.336Z,132.97
2018-11-23T13:33:09.450Z,406.93
2018-11-23T13:35:59.012Z,211.10
2018-11-23T13:38:41.028Z,61.80
2018-11-23T13:41:30.072Z,199.90
2018-11-23T13:44:11.914Z,132.87
2018-11-23T13:47:00.982Z,134.77
2018-11-23T13:49:43.081Z,91.73
2018-11-23T13:52:32.141Z,178.07
2018-11-23T13:55:14.946Z,102.83
2018-11-23T13:58:03.977Z,245.13
2018-11-23T14:00:46.008Z,175.83
2018-11-23T14:03:35.178Z,255.50
2018-11-23T14:06:24.294Z,159.17
2018-11-23T14:09:13.500Z,277.13
2018-11-23T14:12:02.661Z,149.60
2018-11-23T14:14:51.799Z,134.40
2018-11-23T14:17:41.281Z,115.33
2018-11-23T14:20:30.655Z,185.47
2018-11-23T14:23:20.150Z,372.30
2018-11-23T14:26:09.325Z,188.20
2018-11-23T14:28:58.490Z,341.23
2018-11-23T14:31:47.598Z,115.23
2018-11-23T14:34:36.746Z,134.77
2018-11-23T14:37:26.270Z,126.73
2018-11-23T14:40:15.650Z,132.27
2018-11-23T14:43:05.135Z,98.43
2018-11-23T14:45:54.274Z,98.70
2018-11-23T14:48:43.436Z,73.47
2018-11-23T14:51:32.580Z,90.03
2018-11-23T14:54:21.663Z,92.47
2018-11-23T14:57:03.726Z,100.43
2018-11-23T14:59:52.867Z,137.90
2018-11-23T15:02:42.416Z,153.23
2018-11-23T15:05:31.518Z,235.27
2018-11-23T15:08:20.618Z,181.20
2018-11-23T15:11:09.714Z,362.33
2018-11-23T15:13:59.026Z,141.70
2018-11-23T15:16:48.150Z,285.73
2018-11-23T15:19:37.348Z,178.00
2018-11-23T15:22:26.842Z,98.80
2018-11-23T15:25:16.404Z,327.17
2018-11-23T15:28:06.185Z,82.57
2018-11-23T15:30:55.308Z,75.57
2018-11-23T15:33:44.396Z,73.23
2018-11-23T15:36:33.493Z,73.37
2018-11-23T15:39:22.548Z,76.00
2018-11-23T15:42:04.242Z,59.23
2018-11-23T15:44:53.738Z,59.27
2018-11-23T15:47:35.257Z,69.97
2018-11-23T15:50:25.745Z,61.57
2018-11-23T15:53:15.961Z,56.83
2018-11-23T15:55:58.310Z,70.07
2018-11-23T15:58:47.515Z,74.00
2018-11-23T16:01:36.636Z,96.90
2018-11-23T16:04:25.802Z,59.40
2018-11-23T16:07:14.981Z,59.80
2018-11-23T16:10:04.214Z,56.60
2018-11-23T16:13:12.242Z,55.63
2018-11-23T16:16:01.415Z,50.27
2018-11-23T16:18:50.454Z,56.17
2018-11-23T16:21:39.490Z,51.23
2018-11-23T16:24:29.681Z,47.20
2018-11-23T16:27:12.530Z,55.73
2018-11-23T16:30:01.723Z,52.93
2018-11-23T16:32:45.886Z,55.87
2018-11-23T16:35:36.210Z,57.83
2018-11-23T16:38:19.212Z,74.40
2018-11-23T16:41:08.300Z,55.70
2018-11-23T16:43:50.091Z,56.57
2018-11-23T16:46:39.141Z,57.63
2018-11-23T16:49:21.301Z,59.93
2018-11-23T16:52:10.399Z,55.27
2018-11-23T16:54:59.506Z,58.10
2018-11-23T16:57:53.278Z,55.80
2018-11-23T17:00:43.768Z,60.67
2018-11-23T17:03:32.852Z,57.63
2018-11-23T17:06:21.916Z,58.20
2018-11-23T17:09:04.506Z,54.23
2018-11-23T17:11:53.692Z,52.60
2018-11-23T17:14:42.776Z,50.30
2018-11-23T17:17:31.891Z,47.37
2018-11-23T17:20:22.346Z,49.63
2018-11-23T17:23:12.405Z,49.50
2018-11-23T17:26:01.533Z,47.33
2018-11-23T17:28:50.714Z,47.77
2018-11-23T17:31:40.721Z,48.20
2018-11-23T17:34:29.915Z,51.10
2018-11-23T17:37:19.014Z,54.33
2018-11-23T17:40:12.518Z,51.63
2018-11-23T17:43:01.629Z,51.67
2018-11-23T17:45:50.791Z,49.77
2018-11-23T17:48:40.023Z,56.80
2018-11-23T17:51:29.158Z,52.43
2018-11-23T17:54:18.309Z,55.27
2018-11-23T17:57:07.431Z,58.17
2018-11-23T17:59:56.663Z,58.53
2018-11-23T18:02:46.562Z,49.60
2018-11-23T18:05:36.125Z,57.00
2018-11-23T18:08:25.221Z,64.23
2018-11-23T18:11:07.615Z,66.67
2018-11-23T18:13:57.155Z,56.60
2018-11-23T18:16:46.427Z,58.70
2018-11-23T18:19:35.615Z,59.47
2018-11-23T18:22:24.817Z,62.07
2018-11-23T18:25:34.446Z,59.63
2018-11-23T18:28:23.619Z,55.63
2018-11-23T18:31:13.349Z,56.47
2018-11-23T18:34:03.316Z,55.57
2018-11-23T18:36:52.418Z,52.70
2018-11-23T18:39:22.136Z,54.17
2018-11-23T18:42:11.219Z,52.13
2018-11-23T18:44:53.495Z,51.53
2018-11-23T18:48:01.917Z,56.07
2018-11-23T18:50:51.511Z,48.93
2018-11-23T18:53:40.604Z,47.67
2018-11-23T18:56:29.749Z,50.23
2018-11-23T18:59:18.874Z,51.53
2018-11-23T19:02:08.414Z,48.80
2018-11-23T19:04:57.618Z,42.67
2018-11-23T19:07:46.766Z,38.70
2018-11-23T19:10:36.052Z,40.77
2018-11-23T19:13:25.256Z,38.50
2018-11-23T19:16:14.361Z,36.00
2018-11-23T19:19:03.420Z,37.37
2018-11-23T19:21:45.834Z,33.27
2018-11-23T19:24:34.941Z,33.93
2018-11-23T19:27:24.074Z,37.93
2018-11-23T19:30:17.214Z,33.63
2018-11-23T19:33:06.562Z,35.17
2018-11-23T19:35:55.712Z,37.90
2018-11-23T19:38:44.894Z,39.07
2018-11-23T19:41:34.054Z,39.17
2018-11-23T19:44:23.234Z,39.57
2018-11-23T19:47:12.394Z,38.53
2018-11-23T19:50:01.504Z,37.83
2018-11-23T19:52:50.644Z,36.77
2018-11-23T19:55:39.784Z,38.37
2018-11-23T19:58:28.996Z,31.80
2018-11-23T20:01:18.163Z,32.63
2018-11-23T20:04:07.410Z,37.13
2018-11-23T20:06:56.654Z,32.93
2018-11-23T20:09:46.080Z,34.83
2018-11-23T20:12:35.530Z,39.43
2018-11-23T20:15:21.782Z,35.73
2018-11-23T20:18:03.906Z,39.03
2018-11-23T20:20:53.048Z,37.47
2018-11-23T20:23:42.302Z,38.90
2018-11-23T20:26:31.966Z,41.10
2018-11-23T20:29:21.218Z,35.60
2018-11-23T20:32:10.358Z,35.60
2018-11-23T20:40:25.308Z,38.20
2018-11-23T20:43:14.520Z,38.83
2018-11-23T20:46:03.750Z,34.73
2018-11-23T20:48:53.350Z,36.20
2018-11-23T20:51:42.564Z,36.77
2018-11-23T20:54:31.987Z,34.03
2018-11-23T20:57:21.089Z,32.73
2018-11-23T21:00:02.848Z,31.83
2018-11-23T21:02:52.654Z,33.13
2018-11-23T21:05:41.716Z,36.20
2018-11-23T21:08:30.793Z,36.00
2018-11-23T21:11:13.446Z,36.23
2018-11-23T21:14:03.503Z,37.07
2018-11-23T21:16:45.226Z,38.40
2018-11-23T21:19:34.342Z,42.57
2018-11-23T21:22:17.597Z,48.50
2018-11-23T21:25:07.991Z,42.17
2018-11-23T21:27:53.584Z,40.53
2018-11-23T21:30:42.731Z,43.50
2018-11-23T21:33:25.181Z,46.70
2018-11-23T21:36:14.339Z,41.60
2018-11-23T21:38:56.317Z,47.47
2018-11-23T21:41:45.406Z,44.63
2018-11-23T21:44:27.945Z,48.50
2018-11-23T21:47:17.053Z,48.87
2018-11-23T21:49:58.759Z,49.07
2018-11-23T21:52:47.922Z,49.80
2018-11-23T21:55:30.102Z,48.00
2018-11-23T21:58:19.211Z,42.60
2018-11-23T22:01:01.014Z,45.93
2018-11-23T22:03:50.141Z,39.87
2018-11-23T22:06:32.049Z,40.97
2018-11-23T22:09:21.167Z,36.37
2018-11-23T22:12:07.359Z,42.00
2018-11-23T22:14:58.119Z,35.60
2018-11-23T22:17:40.243Z,31.77
2018-11-23T22:20:29.277Z,37.33
2018-11-23T22:23:10.924Z,38.67
2018-11-23T22:26:00.357Z,36.97
2018-11-23T22:28:42.745Z,38.60
2018-11-23T22:31:32.076Z,41.17
2018-11-23T22:34:14.689Z,41.43
2018-11-23T22:37:03.840Z,40.33
2018-11-23T22:39:50.137Z,44.13
2018-11-23T22:42:39.339Z,41.00
2018-11-23T22:45:21.201Z,40.70
2018-11-23T22:51:16.257Z,38.37
2018-11-23T22:53:59.739Z,35.70
2018-11-23T22:56:49.320Z,36.00
2018-11-23T22:59:38.704Z,29.40
2018-11-23T23:08:23.426Z,31.03
2018-11-23T23:14:13.851Z,34.30
2018-11-23T23:16:56.577Z,41.03
2018-11-23T23:19:45.724Z,30.97
2018-11-23T23:25:57.492Z,28.87
2018-11-23T23:28:42.371Z,28.83
2018-11-23T23:31:31.488Z,37.70
2018-11-23T23:34:13.871Z,26.50
2018-11-23T23:37:04.000Z,25.43
2018-11-23T23:39:45.589Z,25.93
2018-11-23T23:42:35.113Z,25.60
2018-11-23T23:45:25.244Z,25.27
2018-11-23T23:48:14.311Z,25.37
2018-11-23T23:50:57.880Z,26.13
2018-11-23T23:56:40.230Z,26.93
